Weather Station Data

Station Data Captured at Five Minute Intervals Since Midnight Local Time


Date Time Temp. RH % Dew Pt. Wind Speed Wind Dir. Peak Wind Wind Chill Pressure Precip. Solar W/m2 ET
4/11/21 8:05p 47.5 85 43.2 2.0 S 5.0 47.5 29.579 0.00 0 0.000
4/11/21 8:00p 47.5 85 43.2 2.0 S 5.0 47.5 29.580 0.00 0 0.001
4/11/21 7:55p 47.5 85 43.2 3.0 SSW 6.0 46.8 29.577 0.00 0 0.000
4/11/21 7:50p 47.5 85 43.2 2.0 SW 5.0 47.5 29.576 0.00 3 0.000
4/11/21 7:45p 47.5 85 43.2 3.0 S 8.0 46.8 29.576 0.00 6 0.000
4/11/21 7:40p 47.5 85 43.2 3.0 SSW 9.0 46.8 29.575 0.00 7 0.000
4/11/21 7:35p 47.6 85 43.3 3.0 S 9.0 47.0 29.574 0.00 11 0.000
4/11/21 7:30p 47.6 84 43.0 5.0 S 10.0 45.4 29.575 0.00 16 0.000
4/11/21 7:25p 47.7 84 43.1 4.0 S 10.0 46.2 29.572 0.01 22 0.000
4/11/21 7:20p 47.8 84 43.2 3.0 SSW 7.0 47.2 29.568 0.00 25 0.000
4/11/21 7:15p 47.8 84 43.2 3.0 S 8.0 47.2 29.569 0.00 19 0.000
4/11/21 7:10p 47.9 83 43.0 3.0 S 8.0 47.3 29.566 0.00 23 0.000
4/11/21 7:05p 48.0 83 43.1 5.0 S 13.0 45.9 29.564 0.00 30 0.000
4/11/21 7:00p 48.2 83 43.3 4.0 SSW 10.0 46.8 29.563 0.00 26 0.001
4/11/21 6:55p 48.3 82 43.1 5.0 S 12.0 46.2 29.559 0.00 18 0.000
4/11/21 6:50p 48.6 82 43.4 6.0 S 11.0 46.0 29.557 0.00 21 0.000
4/11/21 6:45p 48.9 81 43.3 5.0 SSW 9.0 46.9 29.555 0.00 19 0.000
4/11/21 6:40p 49.1 81 43.5 4.0 SSW 9.0 47.8 29.552 0.00 21 0.000
4/11/21 6:35p 49.2 80 43.3 5.0 S 11.0 47.2 29.549 0.00 23 0.000
4/11/21 6:30p 49.4 80 43.5 4.0 S 9.0 48.2 29.547 0.00 26 0.000
4/11/21 6:25p 49.5 80 43.6 6.0 S 14.0 47.1 29.546 0.00 36 0.000
4/11/21 6:20p 49.5 80 43.6 6.0 S 18.0 47.1 29.547 0.00 42 0.000
4/11/21 6:15p 49.6 80 43.7 5.0 S 12.0 47.7 29.545 0.00 50 0.000
4/11/21 6:10p 49.7 81 44.1 6.0 SSW 15.0 47.3 29.545 0.00 61 0.000
4/11/21 6:05p 49.7 81 44.1 6.0 S 13.0 47.3 29.546 0.00 64 0.000
4/11/21 6:00p 49.7 82 44.4 5.0 SSW 14.0 47.8 29.542 0.00 68 0.002
4/11/21 5:55p 49.7 83 44.7 5.0 SSW 15.0 47.8 29.542 0.00 60 0.000
4/11/21 5:50p 49.8 83 44.8 6.0 S 14.0 47.5 29.538 0.00 55 0.000
4/11/21 5:45p 49.9 83 44.9 4.0 SSW 9.0 48.8 29.539 0.00 46 0.000
4/11/21 5:40p 49.9 84 45.3 5.0 S 10.0 48.1 29.538 0.00 36 0.000
4/11/21 5:35p 50.0 84 45.4 4.0 S 11.0 48.9 29.537 0.00 59 0.000
4/11/21 5:30p 49.9 84 45.3 4.0 SSW 9.0 48.8 29.535 0.00 92 0.000
4/11/21 5:25p 49.8 84 45.2 5.0 S 9.0 48.0 29.533 0.00 105 0.000
4/11/21 5:20p 49.7 84 45.1 6.0 SSW 17.0 47.3 29.531 0.00 96 0.000
4/11/21 5:15p 49.6 84 45.0 5.0 SSW 14.0 47.7 29.530 0.00 94 0.000
4/11/21 5:10p 49.6 85 45.3 4.0 SSW 13.0 48.4 29.528 0.00 110 0.000
4/11/21 5:05p 49.4 85 45.1 3.0 SW 9.0 49.0 29.524 0.00 126 0.000
4/11/21 5:00p 49.3 85 45.0 5.0 SSW 11.0 47.4 29.525 0.00 120 0.002
4/11/21 4:55p 49.3 85 45.0 4.0 SSW 9.0 48.1 29.522 0.00 94 0.000
4/11/21 4:50p 49.2 85 44.9 4.0 S 9.0 47.9 29.520 0.00 79 0.000
4/11/21 4:45p 49.2 85 44.9 5.0 SSW 11.0 47.2 29.522 0.00 46 0.000
4/11/21 4:40p 49.3 85 45.0 4.0 SSW 10.0 48.1 29.524 0.00 56 0.000
4/11/21 4:35p 49.3 85 45.0 4.0 S 13.0 48.1 29.521 0.00 80 0.000
4/11/21 4:30p 49.4 85 45.1 4.0 SSW 9.0 48.2 29.519 0.00 105 0.000
4/11/21 4:25p 49.5 85 45.2 3.0 S 9.0 49.1 29.519 0.00 109 0.000
4/11/21 4:20p 49.4 85 45.1 3.0 S 9.0 49.0 29.519 0.00 112 0.000
4/11/21 4:15p 49.2 85 44.9 3.0 S 9.0 48.7 29.520 0.00 97 0.000
4/11/21 4:10p 49.2 85 44.9 3.0 S 8.0 48.7 29.517 0.01 46 0.000
4/11/21 4:05p 49.2 85 44.9 3.0 SSW 11.0 48.7 29.515 0.00 35 0.000
4/11/21 4:00p 49.2 85 44.9 3.0 S 7.0 48.7 29.513 0.00 46 0.002
4/11/21 3:55p 49.2 85 44.9 3.0 SSW 7.0 48.7 29.511 0.01 43 0.000
4/11/21 3:50p 49.2 85 44.9 3.0 SSW 8.0 48.7 29.511 0.01 55 0.000
4/11/21 3:45p 49.4 85 45.1 3.0 SSW 11.0 49.0 29.509 0.00 61 0.000
4/11/21 3:40p 49.4 85 45.1 5.0 S 9.0 47.5 29.507 0.00 50 0.000
4/11/21 3:35p 49.5 85 45.2 4.0 S 11.0 48.3 29.510 0.00 41 0.000
4/11/21 3:30p 49.6 85 45.3 5.0 SSW 11.0 47.7 29.509 0.00 60 0.000
4/11/21 3:25p 49.8 85 45.5 5.0 S 11.0 48.0 29.507 0.00 102 0.000
4/11/21 3:20p 49.9 85 45.6 4.0 SSW 9.0 48.8 29.506 0.00 107 0.000
4/11/21 3:15p 50.0 85 45.7 5.0 S 10.0 48.2 29.502 0.00 187 0.000
4/11/21 3:10p 49.9 85 45.6 3.0 SSE 12.0 49.6 29.500 0.00 226 0.000
4/11/21 3:05p 49.6 85 45.3 5.0 S 9.0 47.7 29.502 0.00 172 0.000
4/11/21 3:00p 49.7 85 45.4 4.0 S 10.0 48.5 29.499 0.00 148 0.003
4/11/21 2:55p 49.6 85 45.3 5.0 S 14.0 47.7 29.501 0.00 109 0.000
4/11/21 2:50p 49.7 85 45.4 5.0 SSW 15.0 47.8 29.503 0.00 214 0.000
4/11/21 2:45p 49.7 85 45.4 4.0 S 10.0 48.5 29.503 0.00 161 0.000
4/11/21 2:40p 49.5 85 45.2 5.0 S 15.0 47.6 29.504 0.00 154 0.000
4/11/21 2:35p 49.5 85 45.2 3.0 SSW 8.0 49.1 29.501 0.00 141 0.000
4/11/21 2:30p 49.4 85 45.1 4.0 SSW 12.0 48.2 29.498 0.00 121 0.000
4/11/21 2:25p 49.3 85 45.0 4.0 SSW 9.0 48.1 29.496 0.00 107 0.000
4/11/21 2:20p 49.2 85 44.9 5.0 S 12.0 47.2 29.494 0.01 150 0.000
4/11/21 2:15p 49.2 85 44.9 5.0 SSW 9.0 47.2 29.497 0.00 85 0.000
4/11/21 2:10p 49.3 85 45.0 3.0 S 7.0 48.9 29.494 0.01 51 0.000
4/11/21 2:05p 49.4 85 45.1 2.0 SSW 6.0 49.4 29.491 0.01 86 0.000
4/11/21 2:00p 49.4 85 45.1 3.0 SSE 8.0 49.0 29.492 0.00 95 0.002
4/11/21 1:55p 49.4 85 45.1 3.0 S 8.0 49.0 29.491 0.00 117 0.000
4/11/21 1:50p 49.5 85 45.2 2.0 SSE 5.0 49.5 29.489 0.01 157 0.000
4/11/21 1:45p 49.3 85 45.0 2.0 SSW 6.0 49.3 29.486 0.00 155 0.000
4/11/21 1:40p 49.1 85 44.8 1.0 SSW 4.0 49.1 29.485 0.00 123 0.000
4/11/21 1:35p 48.9 85 44.6 1.0 S 7.0 48.9 29.482 0.00 60 0.000
4/11/21 1:30p 48.9 85 44.6 1.0 SSE 5.0 48.9 29.481 0.00 85 0.000
4/11/21 1:25p 48.8 84 44.2 2.0 S 6.0 48.8 29.483 0.00 96 0.000
4/11/21 1:20p 48.7 84 44.1 3.0 SSE 12.0 48.2 29.483 0.00 97 0.000
4/11/21 1:15p 48.7 84 44.1 3.0 S 9.0 48.2 29.484 0.01 85 0.000
4/11/21 1:10p 48.6 84 44.0 3.0 SSW 8.0 48.1 29.480 0.00 93 0.000
4/11/21 1:05p 48.5 84 43.9 2.0 SSW 6.0 48.5 29.478 0.00 79 0.000
4/11/21 1:00p 48.5 84 43.9 4.0 S 10.0 47.2 29.478 0.00 75 0.002
4/11/21 12:55p 48.6 84 44.0 5.0 SW 13.0 46.6 29.478 0.01 74 0.000
4/11/21 12:50p 48.7 84 44.1 4.0 SSW 14.0 47.4 29.482 0.00 140 0.000
4/11/21 12:45p 48.8 84 44.2 5.0 SSW 13.0 46.8 29.480 0.01 117 0.000
4/11/21 12:40p 48.8 84 44.2 5.0 SSW 14.0 46.8 29.479 0.01 118 0.000
4/11/21 12:35p 49.0 83 44.1 4.0 SSW 12.0 47.7 29.478 0.00 75 0.000
4/11/21 12:30p 49.4 83 44.5 3.0 SW 7.0 49.0 29.478 0.02 66 0.000
4/11/21 12:25p 49.6 83 44.6 2.0 SSW 9.0 49.6 29.477 0.00 74 0.000
4/11/21 12:20p 49.6 82 44.3 2.0 SSW 6.0 49.6 29.474 0.01 55 0.000
4/11/21 12:15p 49.9 82 44.6 3.0 SSW 8.0 49.6 29.471 0.01 39 0.000
4/11/21 12:10p 50.4 82 45.1 2.0 S 12.0 50.4 29.472 0.01 35 0.000
4/11/21 12:05p 50.5 81 44.9 4.0 SSW 11.0 49.5 29.470 0.00 36 0.000
4/11/21 12:00p 50.6 81 45.0 5.0 S 11.0 48.9 29.467 0.01 65 0.002
4/11/21 11:55a 50.7 81 45.1 5.0 S 10.0 49.0 29.467 0.00 65 0.000
4/11/21 11:50a 50.8 80 44.9 6.0 SSE 15.0 48.7 29.466 0.00 50 0.000
4/11/21 11:45a 50.9 80 44.9 7.0 S 16.0 48.3 29.466 0.00 79 0.000
4/11/21 11:40a 50.9 80 44.9 6.0 SSW 16.0 48.8 29.466 0.00 118 0.000
4/11/21 11:35a 50.8 80 44.9 6.0 SSW 13.0 48.7 29.466 0.00 107 0.000
4/11/21 11:30a 50.7 80 44.8 7.0 SSE 12.0 48.0 29.464 0.00 88 0.000
4/11/21 11:25a 50.5 80 44.6 9.0 SSE 16.0 46.5 29.463 0.00 82 0.000
4/11/21 11:20a 50.4 81 44.8 6.0 S 15.0 48.2 29.461 0.00 72 0.000
4/11/21 11:15a 50.3 81 44.7 4.0 S 11.0 49.2 29.461 0.00 100 0.000
4/11/21 11:10a 50.2 81 44.6 7.0 S 19.0 47.4 29.462 0.00 106 0.000
4/11/21 11:05a 50.2 82 44.9 6.0 SSE 14.0 47.9 29.462 0.00 72 0.000
4/11/21 11:00a 50.3 82 45.0 7.0 SSE 13.0 47.6 29.458 0.00 100 0.003
4/11/21 10:55a 50.3 82 45.0 5.0 SSE 12.0 48.6 29.461 0.00 99 0.000
4/11/21 10:50a 50.3 82 45.0 5.0 SSW 11.0 48.6 29.461 0.00 208 0.000
4/11/21 10:45a 50.2 82 44.9 6.0 SSE 14.0 47.9 29.457 0.00 167 0.000
4/11/21 10:40a 49.9 82 44.6 8.0 SSE 19.0 46.4 29.463 0.00 185 0.000
4/11/21 10:35a 49.9 83 44.9 7.0 S 13.0 47.1 29.465 0.00 165 0.000
4/11/21 10:30a 49.8 83 44.8 5.0 S 11.0 48.0 29.467 0.00 171 0.000
4/11/21 10:25a 49.6 83 44.6 5.0 S 11.0 47.7 29.465 0.00 177 0.000
4/11/21 10:20a 49.4 83 44.5 6.0 S 11.0 47.0 29.464 0.00 100 0.000
4/11/21 10:15a 49.4 83 44.5 6.0 SSE 10.0 47.0 29.466 0.00 72 0.000
4/11/21 10:10a 49.3 82 44.0 6.0 SSE 11.0 46.9 29.464 0.00 84 0.000
4/11/21 10:05a 49.2 83 44.3 3.0 S 10.0 48.7 29.465 0.00 80 0.000
4/11/21 10:00a 49.1 82 43.8 4.0 S 8.0 47.8 29.466 0.00 78 0.002
4/11/21 9:55a 49.1 82 43.8 4.0 SSW 7.0 47.8 29.468 0.00 55 0.000
4/11/21 9:50a 49.1 82 43.8 5.0 SSE 10.0 47.1 29.464 0.00 71 0.000
4/11/21 9:45a 49.1 82 43.8 4.0 S 9.0 47.8 29.464 0.00 41 0.000
4/11/21 9:40a 49.1 82 43.8 5.0 SSW 9.0 47.1 29.465 0.00 25 0.000
4/11/21 9:35a 49.2 82 43.9 5.0 SSE 9.0 47.2 29.465 0.00 46 0.000
4/11/21 9:30a 49.3 81 43.7 4.0 SSE 9.0 48.1 29.464 0.00 24 0.000
4/11/21 9:25a 49.3 81 43.7 7.0 SSE 17.0 46.4 29.466 0.00 14 0.000
4/11/21 9:20a 49.5 81 43.9 4.0 SSE 9.0 48.3 29.463 0.00 40 0.000
4/11/21 9:15a 49.5 81 43.9 6.0 SSE 12.0 47.1 29.461 0.00 81 0.000
4/11/21 9:10a 49.4 81 43.8 6.0 SSE 15.0 47.0 29.460 0.00 122 0.000
4/11/21 9:05a 49.3 81 43.7 5.0 S 12.0 47.4 29.460 0.00 124 0.000
4/11/21 9:00a 49.2 81 43.6 4.0 SSE 12.0 47.9 29.459 0.00 58 0.001
4/11/21 8:55a 49.1 81 43.5 5.0 SSE 8.0 47.1 29.458 0.00 30 0.000
4/11/21 8:50a 49.2 81 43.6 6.0 SSE 12.0 46.7 29.460 0.00 13 0.000
4/11/21 8:45a 49.2 81 43.6 5.0 SSE 10.0 47.2 29.460 0.00 15 0.000
4/11/21 8:40a 49.2 81 43.6 6.0 SSE 13.0 46.7 29.459 0.00 29 0.000
4/11/21 8:35a 49.2 81 43.6 6.0 SSE 11.0 46.7 29.460 0.01 40 0.000
4/11/21 8:30a 49.2 80 43.3 5.0 SSE 10.0 47.2 29.457 0.00 29 0.000
4/11/21 8:25a 49.4 80 43.5 6.0 SSE 16.0 47.0 29.458 0.00 29 0.000
4/11/21 8:20a 49.4 80 43.5 5.0 SSE 11.0 47.5 29.460 0.00 33 0.000
4/11/21 8:15a 49.4 80 43.5 6.0 SSE 14.0 47.0 29.459 0.01 22 0.000
4/11/21 8:10a 49.5 80 43.6 5.0 SSE 11.0 47.6 29.460 0.00 18 0.000
4/11/21 8:05a 49.6 80 43.7 6.0 SSE 12.0 47.2 29.458 0.00 21 0.000
4/11/21 8:00a 49.7 80 43.8 6.0 SSE 15.0 47.3 29.459 0.00 21 0.001
4/11/21 7:55a 49.9 80 44.0 6.0 SSE 15.0 47.6 29.459 0.00 14 0.000
4/11/21 7:50a 50.1 80 44.2 8.0 SSE 16.0 46.6 29.459 0.00 18 0.000
4/11/21 7:45a 50.2 79 43.9 5.0 SSE 15.0 48.4 29.459 0.00 24 0.000
4/11/21 7:40a 50.4 79 44.1 6.0 SSE 14.0 48.2 29.462 0.00 15 0.000
4/11/21 7:35a 50.5 79 44.2 6.0 SSE 11.0 48.3 29.460 0.00 9 0.000
4/11/21 7:30a 50.5 79 44.2 7.0 SSE 13.0 47.8 29.459 0.00 3 0.000
4/11/21 7:25a 50.5 79 44.2 6.0 SSE 14.0 48.3 29.460 0.00 18 0.000
4/11/21 7:20a 50.5 79 44.2 5.0 SSE 12.0 48.8 29.456 0.00 19 0.000
4/11/21 7:15a 50.4 79 44.1 5.0 SSE 14.0 48.7 29.454 0.00 8 0.000
4/11/21 7:10a 50.4 78 43.8 6.0 SSE 13.0 48.2 29.458 0.00 2 0.000
4/11/21 7:05a 50.3 78 43.7 6.0 SSE 11.0 48.1 29.455 0.00 0 0.000
4/11/21 7:00a 50.2 78 43.6 6.0 SSE 14.0 47.9 29.453 0.00 0 0.001
4/11/21 6:55a 50.2 78 43.6 5.0 SE 14.0 48.4 29.456 0.00 0 0.000
4/11/21 6:50a 50.2 78 43.6 5.0 SSE 10.0 48.4 29.456 0.00 0 0.000
4/11/21 6:45a 50.2 78 43.6 6.0 SSE 14.0 47.9 29.455 0.00 0 0.000
4/11/21 6:40a 50.1 78 43.5 7.0 SSE 14.0 47.3 29.457 0.00 0 0.000
4/11/21 6:35a 50.0 78 43.4 6.0 S 15.0 47.7 29.456 0.00 0 0.000
4/11/21 6:30a 50.0 78 43.4 4.0 SSE 10.0 48.9 29.455 0.00 0 0.000
4/11/21 6:25a 50.0 78 43.4 5.0 SSE 12.0 48.2 29.455 0.00 0 0.000
4/11/21 6:20a 50.1 78 43.5 4.0 SSE 11.0 49.0 29.458 0.00 0 0.000
4/11/21 6:15a 50.2 78 43.6 5.0 S 12.0 48.4 29.458 0.00 0 0.000
4/11/21 6:10a 50.2 78 43.6 6.0 SSE 10.0 47.9 29.460 0.00 0 0.000
4/11/21 6:05a 50.2 78 43.6 5.0 SSE 10.0 48.4 29.461 0.00 0 0.000
4/11/21 6:00a 50.2 78 43.6 5.0 SSE 9.0 48.4 29.460 0.00 0 0.001
4/11/21 5:55a 50.2 78 43.6 5.0 SSE 12.0 48.4 29.463 0.00 0 0.000
4/11/21 5:50a 50.2 78 43.6 4.0 SSE 8.0 49.1 29.463 0.00 0 0.000
4/11/21 5:45a 50.2 77 43.3 5.0 SSE 10.0 48.4 29.462 0.00 0 0.000
4/11/21 5:40a 50.2 77 43.3 5.0 SSE 8.0 48.4 29.459 0.00 0 0.000
4/11/21 5:35a 50.3 77 43.4 5.0 SSE 11.0 48.6 29.460 0.00 0 0.000
4/11/21 5:30a 50.4 77 43.5 5.0 SSE 17.0 48.7 29.457 0.00 0 0.000
4/11/21 5:25a 50.6 77 43.7 4.0 SSE 8.0 49.6 29.461 0.00 0 0.000
4/11/21 5:20a 50.7 77 43.8 4.0 SSE 7.0 49.7 29.462 0.00 0 0.000
4/11/21 5:15a 50.8 76 43.5 3.0 S 8.0 50.6 29.461 0.00 0 0.000
4/11/21 5:10a 50.9 76 43.6 4.0 SSE 9.0 49.9 29.465 0.00 0 0.000
4/11/21 5:05a 51.0 76 43.7 4.0 SSE 10.0 50.0 29.464 0.00 0 0.000
4/11/21 5:00a 50.9 76 43.6 5.0 S 11.0 49.3 29.465 0.00 0 0.001
4/11/21 4:55a 50.8 77 43.8 4.0 SSE 8.0 49.8 29.463 0.00 0 0.000
4/11/21 4:50a 50.8 77 43.8 4.0 S 9.0 49.8 29.464 0.00 0 0.000
4/11/21 4:45a 50.8 77 43.8 3.0 S 7.0 50.6 29.462 0.00 0 0.000
4/11/21 4:40a 50.9 76 43.6 4.0 SSE 10.0 49.9 29.465 0.00 0 0.000
4/11/21 4:35a 50.8 77 43.8 5.0 S 12.0 49.2 29.465 0.00 0 0.000
4/11/21 4:30a 50.7 77 43.8 4.0 SSE 8.0 49.7 29.466 0.00 0 0.000
4/11/21 4:25a 50.6 78 44.0 4.0 S 10.0 49.6 29.465 0.00 0 0.000
4/11/21 4:20a 50.6 78 44.0 3.0 SSE 7.0 50.4 29.466 0.00 0 0.000
4/11/21 4:15a 50.7 77 43.8 3.0 S 7.0 50.5 29.465 0.00 0 0.000
4/11/21 4:10a 50.7 78 44.1 4.0 S 8.0 49.7 29.463 0.00 0 0.000
4/11/21 4:05a 50.7 78 44.1 3.0 SSW 6.0 50.5 29.465 0.00 0 0.000
4/11/21 4:00a 50.7 78 44.1 2.0 S 7.0 50.7 29.466 0.00 0 0.001
4/11/21 3:55a 50.8 78 44.2 2.0 S 5.0 50.8 29.466 0.00 0 0.000
4/11/21 3:50a 51.0 77 44.0 1.0 SSE 3.0 51.0 29.469 0.00 0 0.000
4/11/21 3:45a 51.2 77 44.2 1.0 SSE 3.0 51.2 29.468 0.00 0 0.000
4/11/21 3:40a 51.6 76 44.3 1.0 S 3.0 51.6 29.469 0.00 0 0.000
4/11/21 3:35a 51.9 76 44.6 2.0 SSW 4.0 51.9 29.471 0.00 0 0.000
4/11/21 3:30a 52.1 76 44.8 1.0 SSW 5.0 52.1 29.470 0.00 0 0.000
4/11/21 3:25a 52.3 75 44.6 2.0 S 6.0 52.3 29.472 0.00 0 0.000
4/11/21 3:20a 52.6 75 44.9 2.0 SSW 5.0 52.6 29.467 0.00 0 0.000
4/11/21 3:15a 52.8 74 44.7 2.0 S 4.0 52.8 29.466 0.00 0 0.000
4/11/21 3:10a 53.1 74 45.0 3.0 S 6.0 53.1 29.467 0.00 0 0.000
4/11/21 3:05a 53.3 73 44.9 2.0 SSW 5.0 53.3 29.469 0.01 0 0.000
4/11/21 3:00a 53.5 73 45.1 3.0 S 5.0 53.5 29.468 0.00 0 0.001
4/11/21 2:55a 53.8 73 45.3 3.0 SSE 6.0 53.8 29.470 0.00 0 0.000
4/11/21 2:50a 53.9 73 45.4 3.0 S 5.0 53.9 29.469 0.00 0 0.000
4/11/21 2:45a 54.1 73 45.6 4.0 SSE 8.0 53.6 29.470 0.00 0 0.000
4/11/21 2:40a 54.1 73 45.6 4.0 S 9.0 53.6 29.469 0.00 0 0.000
4/11/21 2:35a 54.2 73 45.7 4.0 SSE 9.0 53.7 29.471 0.00 0 0.000
4/11/21 2:30a 54.2 73 45.7 3.0 S 6.0 54.2 29.473 0.00 0 0.000
4/11/21 2:25a 54.3 72 45.5 3.0 SSW 8.0 54.3 29.475 0.00 0 0.000
4/11/21 2:20a 54.6 72 45.8 4.0 SSW 9.0 54.2 29.476 0.00 0 0.000
4/11/21 2:15a 54.7 72 45.8 4.0 SSE 7.0 54.3 29.477 0.00 0 0.000
4/11/21 2:10a 54.9 72 46.0 5.0 SSW 10.0 54.0 29.479 0.00 0 0.000
4/11/21 2:05a 54.8 72 45.9 5.0 S 9.0 53.9 29.481 0.00 0 0.000
4/11/21 2:00a 54.9 72 46.0 3.0 S 5.0 54.9 29.481 0.00 0 0.001
4/11/21 1:55a 55.1 72 46.2 3.0 S 8.0 55.1 29.483 0.00 0 0.000
4/11/21 1:50a 55.2 72 46.3 4.0 SSE 7.0 54.8 29.485 0.00 0 0.000
4/11/21 1:45a 55.2 72 46.3 5.0 SSW 11.0 54.3 29.485 0.00 0 0.000
4/11/21 1:40a 55.1 73 46.6 4.0 SSW 9.0 54.7 29.486 0.00 0 0.000
4/11/21 1:35a 55.1 73 46.6 4.0 S 8.0 54.7 29.489 0.00 0 0.000
4/11/21 1:30a 55.3 73 46.8 3.0 SSW 6.0 55.3 29.490 0.00 0 0.000
4/11/21 1:25a 55.6 73 47.1 3.0 SSE 9.0 55.6 29.490 0.00 0 0.000
4/11/21 1:20a 55.7 73 47.2 4.0 S 11.0 55.4 29.490 0.00 0 0.000
4/11/21 1:15a 55.7 73 47.2 3.0 SSW 6.0 55.7 29.490 0.00 0 0.000
4/11/21 1:10a 55.9 74 47.7 3.0 SSE 6.0 55.9 29.494 0.00 0 0.000
4/11/21 1:05a 56.1 74 47.9 3.0 SSE 7.0 56.1 29.495 0.00 0 0.000
4/11/21 1:00a 56.0 74 47.8 3.0 SSE 6.0 56.0 29.496 0.00 0 0.001
4/11/21 12:55a 56.1 74 47.9 3.0 SSE 7.0 56.1 29.497 0.00 0 0.000
4/11/21 12:50a 56.2 74 48.0 2.0 SSE 5.0 56.2 29.500 0.00 0 0.000
4/11/21 12:45a 56.4 74 48.2 3.0 SSE 6.0 56.4 29.501 0.00 0 0.000
4/11/21 12:40a 56.4 75 48.6 4.0 S 8.0 56.3 29.501 0.00 0 0.000
4/11/21 12:35a 56.4 75 48.6 4.0 SSW 8.0 56.3 29.500 0.00 0 0.000
4/11/21 12:30a 56.2 76 48.7 3.0 S 8.0 56.2 29.501 0.00 0 0.000
4/11/21 12:25a 56.2 77 49.1 3.0 SSE 8.0 56.2 29.502 0.00 0 0.000
4/11/21 12:20a 56.2 77 49.1 3.0 SSE 5.0 56.2 29.505 0.00 0 0.000
4/11/21 12:15a 56.3 77 49.2 1.0 SSE 3.0 56.3 29.504 0.00 0 0.000
4/11/21 12:10a 56.5 77 49.4 2.0 S 4.0 56.5 29.507 0.00 0 0.000
4/11/21 12:05a 56.7 77 49.6 2.0 S 5.0 56.7 29.508 0.00 0 0.000
4/11/21 12:00a 56.9 77 49.8 2.0 SSE 6.0 56.9 29.510 0.00 0 0.001

14,089 Page Views